sensor_id;sensor_type;location;lat;lon;timestamp;temperature;humidity
78467;SHT31;67759;51.972;5.650;2023-08-06T00:01:55;22.4;54.7
78467;SHT31;67759;51.972;5.650;2023-08-06T00:04:25;22.3;54.8
78467;SHT31;67759;51.972;5.650;2023-08-06T00:06:54;22.2;55.1
78467;SHT31;67759;51.972;5.650;2023-08-06T00:09:24;22.2;55.1
78467;SHT31;67759;51.972;5.650;2023-08-06T00:11:54;22.2;55.4
78467;SHT31;67759;51.972;5.650;2023-08-06T00:14:23;22.1;55.4
78467;SHT31;67759;51.972;5.650;2023-08-06T00:16:53;22.1;55.7
78467;SHT31;67759;51.972;5.650;2023-08-06T00:19:23;22.1;55.8
78467;SHT31;67759;51.972;5.650;2023-08-06T00:21:52;22.2;55.9
78467;SHT31;67759;51.972;5.650;2023-08-06T00:24:22;22.2;55.7
78467;SHT31;67759;51.972;5.650;2023-08-06T00:26:52;22.2;55.8
78467;SHT31;67759;51.972;5.650;2023-08-06T00:29:21;22.3;55.3
78467;SHT31;67759;51.972;5.650;2023-08-06T00:31:51;22.3;55.5
78467;SHT31;67759;51.972;5.650;2023-08-06T00:34:21;22.2;55.6
78467;SHT31;67759;51.972;5.650;2023-08-06T00:36:50;22.2;55.8
78467;SHT31;67759;51.972;5.650;2023-08-06T00:39:21;22.2;55.8
78467;SHT31;67759;51.972;5.650;2023-08-06T00:41:50;22.2;55.8
78467;SHT31;67759;51.972;5.650;2023-08-06T00:44:20;22.2;55.6
78467;SHT31;67759;51.972;5.650;2023-08-06T00:46:50;22.2;56.3
78467;SHT31;67759;51.972;5.650;2023-08-06T00:49:20;22.2;56.4
78467;SHT31;67759;51.972;5.650;2023-08-06T00:51:50;22.2;56.5
78467;SHT31;67759;51.972;5.650;2023-08-06T00:54:21;22.2;56.7
78467;SHT31;67759;51.972;5.650;2023-08-06T00:56:53;22.2;56.4
78467;SHT31;67759;51.972;5.650;2023-08-06T00:59:25;22.3;56.1
78467;SHT31;67759;51.972;5.650;2023-08-06T01:01:55;22.3;56.4
78467;SHT31;67759;51.972;5.650;2023-08-06T01:04:24;22.3;56.0
78467;SHT31;67759;51.972;5.650;2023-08-06T01:07:05;22.3;56.3
78467;SHT31;67759;51.972;5.650;2023-08-06T01:09:49;22.2;56.4
78467;SHT31;67759;51.972;5.650;2023-08-06T01:12:32;22.2;56.8
78467;SHT31;67759;51.972;5.650;2023-08-06T01:15:13;22.2;57.0
78467;SHT31;67759;51.972;5.650;2023-08-06T01:17:45;22.1;57.0
78467;SHT31;67759;51.972;5.650;2023-08-06T01:20:15;22.1;57.2
78467;SHT31;67759;51.972;5.650;2023-08-06T01:22:44;22.0;57.6
78467;SHT31;67759;51.972;5.650;2023-08-06T01:25:16;22.0;57.7
78467;SHT31;67759;51.972;5.650;2023-08-06T01:27:48;22.0;57.6
78467;SHT31;67759;51.972;5.650;2023-08-06T01:30:22;22.0;57.8
78467;SHT31;67759;51.972;5.650;2023-08-06T01:32:58;22.0;57.9
78467;SHT31;67759;51.972;5.650;2023-08-06T01:35:30;22.0;58.2
78467;SHT31;67759;51.972;5.650;2023-08-06T01:38:01;22.0;58.1
78467;SHT31;67759;51.972;5.650;2023-08-06T01:40:31;21.9;58.3
78467;SHT31;67759;51.972;5.650;2023-08-06T01:43:02;21.9;58.3
78467;SHT31;67759;51.972;5.650;2023-08-06T01:45:31;21.9;58.5
78467;SHT31;67759;51.972;5.650;2023-08-06T01:48:01;21.8;58.9
78467;SHT31;67759;51.972;5.650;2023-08-06T01:50:31;21.8;58.9
78467;SHT31;67759;51.972;5.650;2023-08-06T01:53:00;21.7;58.9
78467;SHT31;67759;51.972;5.650;2023-08-06T01:55:31;21.7;59.1
78467;SHT31;67759;51.972;5.650;2023-08-06T01:58:00;21.8;59.1
78467;SHT31;67759;51.972;5.650;2023-08-06T02:00:30;21.8;59.0
78467;SHT31;67759;51.972;5.650;2023-08-06T02:02:59;21.8;59.0
78467;SHT31;67759;51.972;5.650;2023-08-06T02:05:29;21.8;59.0
78467;SHT31;67759;51.972;5.650;2023-08-06T02:07:58;21.8;59.2
78467;SHT31;67759;51.972;5.650;2023-08-06T02:10:30;21.8;59.2
78467;SHT31;67759;51.972;5.650;2023-08-06T02:13:00;21.8;58.3
78467;SHT31;67759;51.972;5.650;2023-08-06T02:15:29;21.8;59.1
78467;SHT31;67759;51.972;5.650;2023-08-06T02:17:59;21.9;59.2
78467;SHT31;67759;51.972;5.650;2023-08-06T02:20:28;21.9;58.8
78467;SHT31;67759;51.972;5.650;2023-08-06T02:22:58;22.0;58.8
78467;SHT31;67759;51.972;5.650;2023-08-06T02:25:28;22.0;58.3
78467;SHT31;67759;51.972;5.650;2023-08-06T02:27:58;22.1;58.5
78467;SHT31;67759;51.972;5.650;2023-08-06T02:30:27;22.1;57.8
78467;SHT31;67759;51.972;5.650;2023-08-06T02:32:58;22.2;57.7
78467;SHT31;67759;51.972;5.650;2023-08-06T02:35:27;22.2;57.6
78467;SHT31;67759;51.972;5.650;2023-08-06T02:37:57;22.2;57.8
78467;SHT31;67759;51.972;5.650;2023-08-06T02:40:26;22.2;57.2
78467;SHT31;67759;51.972;5.650;2023-08-06T02:42:56;22.3;56.7
78467;SHT31;67759;51.972;5.650;2023-08-06T02:45:25;22.3;57.1
78467;SHT31;67759;51.972;5.650;2023-08-06T02:47:55;22.3;56.7
78467;SHT31;67759;51.972;5.650;2023-08-06T02:50:25;22.3;56.8
78467;SHT31;67759;51.972;5.650;2023-08-06T02:52:54;22.3;56.8
78467;SHT31;67759;51.972;5.650;2023-08-06T02:55:24;22.3;57.1
78467;SHT31;67759;51.972;5.650;2023-08-06T02:57:54;22.3;56.4
78467;SHT31;67759;51.972;5.650;2023-08-06T03:00:23;22.3;57.0
78467;SHT31;67759;51.972;5.650;2023-08-06T03:02:53;22.3;57.1
78467;SHT31;67759;51.972;5.650;2023-08-06T03:05:23;22.3;56.9
78467;SHT31;67759;51.972;5.650;2023-08-06T03:07:52;22.4;56.2
78467;SHT31;67759;51.972;5.650;2023-08-06T03:10:22;22.3;56.9
78467;SHT31;67759;51.972;5.650;2023-08-06T03:12:51;22.3;56.8
78467;SHT31;67759;51.972;5.650;2023-08-06T03:15:21;22.3;57.1
78467;SHT31;67759;51.972;5.650;2023-08-06T03:17:52;22.3;56.7
78467;SHT31;67759;51.972;5.650;2023-08-06T03:20:24;22.3;56.7
78467;SHT31;67759;51.972;5.650;2023-08-06T03:22:54;22.3;56.4
78467;SHT31;67759;51.972;5.650;2023-08-06T03:25:24;22.3;56.9
78467;SHT31;67759;51.972;5.650;2023-08-06T03:27:53;22.3;57.1
78467;SHT31;67759;51.972;5.650;2023-08-06T03:30:23;22.4;56.8
78467;SHT31;67759;51.972;5.650;2023-08-06T03:32:52;22.4;55.9
78467;SHT31;67759;51.972;5.650;2023-08-06T03:35:22;22.4;56.7
78467;SHT31;67759;51.972;5.650;2023-08-06T03:37:51;22.4;56.7
78467;SHT31;67759;51.972;5.650;2023-08-06T03:40:21;22.4;56.3
78467;SHT31;67759;51.972;5.650;2023-08-06T03:42:51;22.5;56.4
78467;SHT31;67759;51.972;5.650;2023-08-06T03:45:21;22.5;56.2
78467;SHT31;67759;51.972;5.650;2023-08-06T03:47:50;22.5;56.6
78467;SHT31;67759;51.972;5.650;2023-08-06T03:50:20;22.5;56.3
78467;SHT31;67759;51.972;5.650;2023-08-06T03:52:49;22.6;56.2
78467;SHT31;67759;51.972;5.650;2023-08-06T03:55:19;22.6;55.7
78467;SHT31;67759;51.972;5.650;2023-08-06T03:57:49;22.6;56.0
78467;SHT31;67759;51.972;5.650;2023-08-06T04:00:18;22.6;54.7
78467;SHT31;67759;51.972;5.650;2023-08-06T04:02:48;22.6;56.0
78467;SHT31;67759;51.972;5.650;2023-08-06T04:05:19;22.6;55.2
78467;SHT31;67759;51.972;5.650;2023-08-06T04:07:49;22.6;55.9
78467;SHT31;67759;51.972;5.650;2023-08-06T04:10:18;22.6;55.9
78467;SHT31;67759;51.972;5.650;2023-08-06T04:12:48;22.6;55.2
78467;SHT31;67759;51.972;5.650;2023-08-06T04:15:17;22.6;55.9
78467;SHT31;67759;51.972;5.650;2023-08-06T04:17:49;22.7;55.8
78467;SHT31;67759;51.972;5.650;2023-08-06T04:20:20;22.7;55.4
78467;SHT31;67759;51.972;5.650;2023-08-06T04:22:50;22.7;54.2
78467;SHT31;67759;51.972;5.650;2023-08-06T04:25:20;22.7;54.5
78467;SHT31;67759;51.972;5.650;2023-08-06T04:27:50;22.7;55.2
78467;SHT31;67759;51.972;5.650;2023-08-06T04:30:20;22.7;54.3
78467;SHT31;67759;51.972;5.650;2023-08-06T04:32:51;22.7;54.4
78467;SHT31;67759;51.972;5.650;2023-08-06T04:35:20;22.8;55.8
78467;SHT31;67759;51.972;5.650;2023-08-06T04:37:50;22.8;54.8
78467;SHT31;67759;51.972;5.650;2023-08-06T04:40:20;22.8;54.3
78467;SHT31;67759;51.972;5.650;2023-08-06T04:42:49;22.8;54.7
78467;SHT31;67759;51.972;5.650;2023-08-06T04:45:21;22.8;55.0
78467;SHT31;67759;51.972;5.650;2023-08-06T04:47:51;22.9;54.8
78467;SHT31;67759;51.972;5.650;2023-08-06T04:50:21;22.9;54.8
78467;SHT31;67759;51.972;5.650;2023-08-06T04:52:51;22.9;55.1
78467;SHT31;67759;51.972;5.650;2023-08-06T04:55:20;22.9;55.5
78467;SHT31;67759;51.972;5.650;2023-08-06T04:57:50;23.0;55.8
78467;SHT31;67759;51.972;5.650;2023-08-06T05:00:20;23.0;55.7
78467;SHT31;67759;51.972;5.650;2023-08-06T05:02:50;23.0;55.7
78467;SHT31;67759;51.972;5.650;2023-08-06T05:05:19;23.1;56.0
78467;SHT31;67759;51.972;5.650;2023-08-06T05:07:50;23.2;54.8
78467;SHT31;67759;51.972;5.650;2023-08-06T05:10:20;23.2;54.9
78467;SHT31;67759;51.972;5.650;2023-08-06T05:12:51;23.2;55.2
78467;SHT31;67759;51.972;5.650;2023-08-06T05:15:21;23.3;55.0
78467;SHT31;67759;51.972;5.650;2023-08-06T05:17:52;23.3;54.9
78467;SHT31;67759;51.972;5.650;2023-08-06T05:20:22;23.3;55.1
78467;SHT31;67759;51.972;5.650;2023-08-06T05:22:51;23.4;54.4
78467;SHT31;67759;51.972;5.650;2023-08-06T05:25:21;23.4;54.4
78467;SHT31;67759;51.972;5.650;2023-08-06T05:27:51;23.4;54.9
78467;SHT31;67759;51.972;5.650;2023-08-06T05:30:20;23.4;54.9
78467;SHT31;67759;51.972;5.650;2023-08-06T05:32:50;23.5;53.3
78467;SHT31;67759;51.972;5.650;2023-08-06T05:35:20;23.5;54.9
78467;SHT31;67759;51.972;5.650;2023-08-06T05:37:50;23.6;54.8
78467;SHT31;67759;51.972;5.650;2023-08-06T05:40:19;23.6;55.2
78467;SHT31;67759;51.972;5.650;2023-08-06T05:42:49;23.6;54.6
78467;SHT31;67759;51.972;5.650;2023-08-06T05:45:19;23.7;54.8
78467;SHT31;67759;51.972;5.650;2023-08-06T05:47:49;23.7;54.0
78467;SHT31;67759;51.972;5.650;2023-08-06T05:50:21;23.7;54.4
78467;SHT31;67759;51.972;5.650;2023-08-06T05:52:51;23.8;54.4
78467;SHT31;67759;51.972;5.650;2023-08-06T05:55:22;23.8;53.9
78467;SHT31;67759;51.972;5.650;2023-08-06T05:57:51;23.8;53.7
78467;SHT31;67759;51.972;5.650;2023-08-06T06:00:21;23.8;53.7
78467;SHT31;67759;51.972;5.650;2023-08-06T06:02:51;23.8;53.7
78467;SHT31;67759;51.972;5.650;2023-08-06T06:05:20;23.8;53.8
78467;SHT31;67759;51.972;5.650;2023-08-06T06:07:50;23.8;54.2
78467;SHT31;67759;51.972;5.650;2023-08-06T06:10:19;23.8;53.7
78467;SHT31;67759;51.972;5.650;2023-08-06T06:12:49;23.8;53.6
78467;SHT31;67759;51.972;5.650;2023-08-06T06:15:18;23.9;54.0
78467;SHT31;67759;51.972;5.650;2023-08-06T06:17:48;23.9;53.4
78467;SHT31;67759;51.972;5.650;2023-08-06T06:20:17;23.9;53.9
78467;SHT31;67759;51.972;5.650;2023-08-06T06:22:47;23.9;52.9
78467;SHT31;67759;51.972;5.650;2023-08-06T06:25:16;23.9;54.2
78467;SHT31;67759;51.972;5.650;2023-08-06T06:27:46;23.9;53.8
78467;SHT31;67759;51.972;5.650;2023-08-06T06:30:16;23.9;52.8
78467;SHT31;67759;51.972;5.650;2023-08-06T06:32:46;23.9;53.5
78467;SHT31;67759;51.972;5.650;2023-08-06T06:35:15;23.9;53.5
78467;SHT31;67759;51.972;5.650;2023-08-06T06:37:45;23.9;53.4
78467;SHT31;67759;51.972;5.650;2023-08-06T06:40:15;23.9;53.7
78467;SHT31;67759;51.972;5.650;2023-08-06T06:42:45;23.9;53.1
78467;SHT31;67759;51.972;5.650;2023-08-06T06:45:14;23.8;53.6
78467;SHT31;67759;51.972;5.650;2023-08-06T06:47:44;23.8;53.3
78467;SHT31;67759;51.972;5.650;2023-08-06T06:50:15;23.8;53.9
78467;SHT31;67759;51.972;5.650;2023-08-06T06:52:45;23.8;52.9
78467;SHT31;67759;51.972;5.650;2023-08-06T06:55:16;23.8;54.2
78467;SHT31;67759;51.972;5.650;2023-08-06T06:57:46;23.8;54.7
78467;SHT31;67759;51.972;5.650;2023-08-06T07:00:16;23.9;54.2
78467;SHT31;67759;51.972;5.650;2023-08-06T07:02:45;24.1;53.5
78467;SHT31;67759;51.972;5.650;2023-08-06T07:05:15;24.3;52.6
78467;SHT31;67759;51.972;5.650;2023-08-06T07:07:45;24.3;52.5
78467;SHT31;67759;51.972;5.650;2023-08-06T07:10:15;24.4;52.3
78467;SHT31;67759;51.972;5.650;2023-08-06T07:12:44;24.4;52.0
78467;SHT31;67759;51.972;5.650;2023-08-06T07:15:14;24.4;53.0
78467;SHT31;67759;51.972;5.650;2023-08-06T07:17:45;24.4;52.7
78467;SHT31;67759;51.972;5.650;2023-08-06T07:20:14;24.4;52.4
78467;SHT31;67759;51.972;5.650;2023-08-06T07:22:44;24.4;53.2
78467;SHT31;67759;51.972;5.650;2023-08-06T07:25:14;24.5;53.1
78467;SHT31;67759;51.972;5.650;2023-08-06T07:27:44;24.5;53.2
78467;SHT31;67759;51.972;5.650;2023-08-06T07:30:15;24.5;53.2
78467;SHT31;67759;51.972;5.650;2023-08-06T07:32:45;24.5;54.4
78467;SHT31;67759;51.972;5.650;2023-08-06T07:35:16;24.6;54.5
78467;SHT31;67759;51.972;5.650;2023-08-06T07:37:46;24.7;53.3
78467;SHT31;67759;51.972;5.650;2023-08-06T07:40:17;24.8;53.4
78467;SHT31;67759;51.972;5.650;2023-08-06T07:42:47;24.9;52.7
78467;SHT31;67759;51.972;5.650;2023-08-06T07:45:18;24.9;52.4
78467;SHT31;67759;51.972;5.650;2023-08-06T07:47:48;25.0;51.9
78467;SHT31;67759;51.972;5.650;2023-08-06T07:50:21;25.1;51.1
78467;SHT31;67759;51.972;5.650;2023-08-06T07:52:51;25.1;51.9
78467;SHT31;67759;51.972;5.650;2023-08-06T07:55:20;25.1;50.8
78467;SHT31;67759;51.972;5.650;2023-08-06T07:57:50;25.0;51.3
78467;SHT31;67759;51.972;5.650;2023-08-06T08:00:19;25.0;51.1
78467;SHT31;67759;51.972;5.650;2023-08-06T08:02:50;24.9;51.5
78467;SHT31;67759;51.972;5.650;2023-08-06T08:05:20;24.9;51.9
78467;SHT31;67759;51.972;5.650;2023-08-06T08:07:49;24.8;52.3
78467;SHT31;67759;51.972;5.650;2023-08-06T08:10:19;24.8;52.2
78467;SHT31;67759;51.972;5.650;2023-08-06T08:12:48;24.7;52.1
78467;SHT31;67759;51.972;5.650;2023-08-06T08:15:18;24.7;52.3
78467;SHT31;67759;51.972;5.650;2023-08-06T08:17:48;24.7;52.4
78467;SHT31;67759;51.972;5.650;2023-08-06T08:20:18;24.7;52.7
78467;SHT31;67759;51.972;5.650;2023-08-06T08:22:47;24.7;52.6
78467;SHT31;67759;51.972;5.650;2023-08-06T08:25:17;24.7;53.0
78467;SHT31;67759;51.972;5.650;2023-08-06T08:27:47;24.8;51.9
78467;SHT31;67759;51.972;5.650;2023-08-06T08:30:16;24.8;52.4
78467;SHT31;67759;51.972;5.650;2023-08-06T08:32:47;24.8;52.4
78467;SHT31;67759;51.972;5.650;2023-08-06T08:35:17;24.8;52.1
78467;SHT31;67759;51.972;5.650;2023-08-06T08:37:47;24.7;52.0
78467;SHT31;67759;51.972;5.650;2023-08-06T08:40:18;24.7;52.5
78467;SHT31;67759;51.972;5.650;2023-08-06T08:42:48;24.6;52.1
78467;SHT31;67759;51.972;5.650;2023-08-06T08:45:20;24.5;52.3
78467;SHT31;67759;51.972;5.650;2023-08-06T08:47:51;24.4;52.4
78467;SHT31;67759;51.972;5.650;2023-08-06T08:50:22;24.3;52.5
78467;SHT31;67759;51.972;5.650;2023-08-06T08:52:52;24.1;52.0
78467;SHT31;67759;51.972;5.650;2023-08-06T08:55:22;23.9;52.3
78467;SHT31;67759;51.972;5.650;2023-08-06T08:57:52;23.7;52.6
78467;SHT31;67759;51.972;5.650;2023-08-06T09:00:21;23.4;53.5
78467;SHT31;67759;51.972;5.650;2023-08-06T09:02:55;23.2;53.8
78467;SHT31;67759;51.972;5.650;2023-08-06T09:05:28;22.8;54.9
78467;SHT31;67759;51.972;5.650;2023-08-06T09:08:02;22.5;55.3
78467;SHT31;67759;51.972;5.650;2023-08-06T09:10:33;22.2;56.4
78467;SHT31;67759;51.972;5.650;2023-08-06T09:13:04;22.0;57.1
78467;SHT31;67759;51.972;5.650;2023-08-06T09:15:36;21.8;57.5
78467;SHT31;67759;51.972;5.650;2023-08-06T09:18:11;21.7;58.1
78467;SHT31;67759;51.972;5.650;2023-08-06T09:20:43;21.6;58.2
78467;SHT31;67759;51.972;5.650;2023-08-06T09:23:12;21.5;58.3
78467;SHT31;67759;51.972;5.650;2023-08-06T09:25:42;21.4;58.5
78467;SHT31;67759;51.972;5.650;2023-08-06T09:28:12;21.3;58.5
78467;SHT31;67759;51.972;5.650;2023-08-06T09:30:41;21.3;59.0
78467;SHT31;67759;51.972;5.650;2023-08-06T09:33:11;21.2;59.2
78467;SHT31;67759;51.972;5.650;2023-08-06T09:35:45;21.2;59.0
78467;SHT31;67759;51.972;5.650;2023-08-06T09:38:14;21.2;59.1
78467;SHT31;67759;51.972;5.650;2023-08-06T09:40:44;21.1;59.1
78467;SHT31;67759;51.972;5.650;2023-08-06T09:43:18;21.1;59.2
78467;SHT31;67759;51.972;5.650;2023-08-06T09:45:48;21.0;59.2
78467;SHT31;67759;51.972;5.650;2023-08-06T09:48:18;21.0;59.5
78467;SHT31;67759;51.972;5.650;2023-08-06T09:50:48;20.9;60.1
78467;SHT31;67759;51.972;5.650;2023-08-06T09:53:24;20.9;60.5
78467;SHT31;67759;51.972;5.650;2023-08-06T09:55:54;20.8;60.9
78467;SHT31;67759;51.972;5.650;2023-08-06T09:58:25;20.8;61.3
78467;SHT31;67759;51.972;5.650;2023-08-06T10:00:55;20.7;61.9
78467;SHT31;67759;51.972;5.650;2023-08-06T10:03:25;20.5;62.5
78467;SHT31;67759;51.972;5.650;2023-08-06T10:05:57;20.2;63.4
78467;SHT31;67759;51.972;5.650;2023-08-06T10:08:29;20.0;64.0
78467;SHT31;67759;51.972;5.650;2023-08-06T10:11:02;19.8;64.6
78467;SHT31;67759;51.972;5.650;2023-08-06T10:13:34;19.7;65.3
78467;SHT31;67759;51.972;5.650;2023-08-06T10:16:05;19.6;65.9
78467;SHT31;67759;51.972;5.650;2023-08-06T10:18:37;19.5;66.3
78467;SHT31;67759;51.972;5.650;2023-08-06T10:21:09;19.4;66.8
78467;SHT31;67759;51.972;5.650;2023-08-06T10:23:40;19.4;67.2
78467;SHT31;67759;51.972;5.650;2023-08-06T10:26:12;19.3;67.4
78467;SHT31;67759;51.972;5.650;2023-08-06T10:28:43;19.3;67.3
78467;SHT31;67759;51.972;5.650;2023-08-06T10:31:13;19.3;67.4
78467;SHT31;67759;51.972;5.650;2023-08-06T10:33:45;19.2;67.7
78467;SHT31;67759;51.972;5.650;2023-08-06T10:36:15;19.2;67.5
78467;SHT31;67759;51.972;5.650;2023-08-06T10:38:49;19.2;67.8
78467;SHT31;67759;51.972;5.650;2023-08-06T10:41:22;19.2;68.1
78467;SHT31;67759;51.972;5.650;2023-08-06T10:44:06;19.2;67.7
78467;SHT31;67759;51.972;5.650;2023-08-06T10:46:38;19.2;67.7
78467;SHT31;67759;51.972;5.650;2023-08-06T10:49:08;19.1;67.9
78467;SHT31;67759;51.972;5.650;2023-08-06T10:51:37;19.1;68.1
78467;SHT31;67759;51.972;5.650;2023-08-06T10:54:09;19.1;68.1
78467;SHT31;67759;51.972;5.650;2023-08-06T10:56:41;19.1;67.8
78467;SHT31;67759;51.972;5.650;2023-08-06T10:59:15;19.1;68.3
78467;SHT31;67759;51.972;5.650;2023-08-06T11:01:45;19.1;67.9
78467;SHT31;67759;51.972;5.650;2023-08-06T11:04:15;19.1;68.6
78467;SHT31;67759;51.972;5.650;2023-08-06T11:06:53;19.1;67.9
78467;SHT31;67759;51.972;5.650;2023-08-06T11:09:23;19.1;68.3
78467;SHT31;67759;51.972;5.650;2023-08-06T11:11:54;19.1;68.6
78467;SHT31;67759;51.972;5.650;2023-08-06T11:14:23;19.1;68.4
78467;SHT31;67759;51.972;5.650;2023-08-06T11:16:53;19.1;68.8
78467;SHT31;67759;51.972;5.650;2023-08-06T11:19:23;19.2;69.1
78467;SHT31;67759;51.972;5.650;2023-08-06T11:21:54;19.2;68.6
78467;SHT31;67759;51.972;5.650;2023-08-06T11:24:26;19.2;68.7
78467;SHT31;67759;51.972;5.650;2023-08-06T11:26:55;19.2;68.0
78467;SHT31;67759;51.972;5.650;2023-08-06T11:29:25;19.2;68.4
78467;SHT31;67759;51.972;5.650;2023-08-06T11:32:05;19.2;68.4
78467;SHT31;67759;51.972;5.650;2023-08-06T11:34:35;19.2;68.0
78467;SHT31;67759;51.972;5.650;2023-08-06T11:37:06;19.2;68.4
78467;SHT31;67759;51.972;5.650;2023-08-06T11:39:37;19.2;67.9
78467;SHT31;67759;51.972;5.650;2023-08-06T11:42:07;19.2;68.0
78467;SHT31;67759;51.972;5.650;2023-08-06T11:44:40;19.2;67.4
78467;SHT31;67759;51.972;5.650;2023-08-06T11:47:15;19.3;68.0
78467;SHT31;67759;51.972;5.650;2023-08-06T11:49:47;19.3;67.1
78467;SHT31;67759;51.972;5.650;2023-08-06T11:52:19;19.3;67.2
78467;SHT31;67759;51.972;5.650;2023-08-06T11:55:02;19.2;67.7
78467;SHT31;67759;51.972;5.650;2023-08-06T11:57:34;19.2;67.3
78467;SHT31;67759;51.972;5.650;2023-08-06T12:00:06;19.2;66.9
78467;SHT31;67759;51.972;5.650;2023-08-06T12:02:39;19.2;67.7
78467;SHT31;67759;51.972;5.650;2023-08-06T12:05:14;19.2;67.6
78467;SHT31;67759;51.972;5.650;2023-08-06T12:07:45;19.2;67.9
78467;SHT31;67759;51.972;5.650;2023-08-06T12:10:16;19.2;68.6
78467;SHT31;67759;51.972;5.650;2023-08-06T12:12:47;19.2;68.8
78467;SHT31;67759;51.972;5.650;2023-08-06T12:15:18;19.3;68.5
78467;SHT31;67759;51.972;5.650;2023-08-06T12:17:48;19.3;68.5
78467;SHT31;67759;51.972;5.650;2023-08-06T12:20:18;19.4;67.2
78467;SHT31;67759;51.972;5.650;2023-08-06T12:22:51;19.4;67.8
78467;SHT31;67759;51.972;5.650;2023-08-06T12:25:21;19.5;67.1
78467;SHT31;67759;51.972;5.650;2023-08-06T12:27:51;19.5;66.6
78467;SHT31;67759;51.972;5.650;2023-08-06T12:30:21;19.5;65.8
78467;SHT31;67759;51.972;5.650;2023-08-06T12:32:50;19.5;65.6
78467;SHT31;67759;51.972;5.650;2023-08-06T12:35:20;19.5;65.3
78467;SHT31;67759;51.972;5.650;2023-08-06T12:37:51;19.5;65.6
78467;SHT31;67759;51.972;5.650;2023-08-06T12:40:22;19.4;65.3
78467;SHT31;67759;51.972;5.650;2023-08-06T12:42:51;19.4;66.0
78467;SHT31;67759;51.972;5.650;2023-08-06T12:45:21;19.3;66.3
78467;SHT31;67759;51.972;5.650;2023-08-06T12:47:51;19.3;66.6
78467;SHT31;67759;51.972;5.650;2023-08-06T12:50:21;19.3;66.3
78467;SHT31;67759;51.972;5.650;2023-08-06T12:52:51;19.3;66.9
78467;SHT31;67759;51.972;5.650;2023-08-06T12:55:21;19.2;67.2
78467;SHT31;67759;51.972;5.650;2023-08-06T12:57:50;19.2;67.1
78467;SHT31;67759;51.972;5.650;2023-08-06T13:00:20;19.2;68.1
78467;SHT31;67759;51.972;5.650;2023-08-06T13:02:50;19.3;68.2
78467;SHT31;67759;51.972;5.650;2023-08-06T13:05:20;19.5;67.7
78467;SHT31;67759;51.972;5.650;2023-08-06T13:07:49;19.6;66.6
78467;SHT31;67759;51.972;5.650;2023-08-06T13:10:19;19.7;66.2
78467;SHT31;67759;51.972;5.650;2023-08-06T13:12:52;19.6;65.7
78467;SHT31;67759;51.972;5.650;2023-08-06T13:15:22;19.6;66.3
78467;SHT31;67759;51.972;5.650;2023-08-06T13:17:52;19.5;66.7
78467;SHT31;67759;51.972;5.650;2023-08-06T13:20:21;19.5;67.4
78467;SHT31;67759;51.972;5.650;2023-08-06T13:22:51;19.5;67.1
78467;SHT31;67759;51.972;5.650;2023-08-06T13:25:21;19.5;67.3
78467;SHT31;67759;51.972;5.650;2023-08-06T13:27:51;19.5;67.7
78467;SHT31;67759;51.972;5.650;2023-08-06T13:30:22;19.5;67.9
78467;SHT31;67759;51.972;5.650;2023-08-06T13:32:52;19.4;68.4
78467;SHT31;67759;51.972;5.650;2023-08-06T13:35:24;19.4;68.4
78467;SHT31;67759;51.972;5.650;2023-08-06T13:37:53;19.5;69.0
78467;SHT31;67759;51.972;5.650;2023-08-06T13:40:23;19.5;68.8
78467;SHT31;67759;51.972;5.650;2023-08-06T13:42:52;19.5;69.3
78467;SHT31;67759;51.972;5.650;2023-08-06T13:45:24;19.5;69.0
78467;SHT31;67759;51.972;5.650;2023-08-06T13:47:55;19.5;68.4
78467;SHT31;67759;51.972;5.650;2023-08-06T13:50:24;19.6;69.1
78467;SHT31;67759;51.972;5.650;2023-08-06T13:52:56;19.6;68.7
78467;SHT31;67759;51.972;5.650;2023-08-06T13:55:27;19.6;68.9
78467;SHT31;67759;51.972;5.650;2023-08-06T13:57:57;19.6;68.6
78467;SHT31;67759;51.972;5.650;2023-08-06T14:00:26;19.6;68.1
78467;SHT31;67759;51.972;5.650;2023-08-06T14:02:56;19.6;68.4
78467;SHT31;67759;51.972;5.650;2023-08-06T14:05:26;19.7;68.8
78467;SHT31;67759;51.972;5.650;2023-08-06T14:07:56;19.7;68.7
78467;SHT31;67759;51.972;5.650;2023-08-06T14:10:25;19.7;68.9
78467;SHT31;67759;51.972;5.650;2023-08-06T14:12:55;19.8;68.2
78467;SHT31;67759;51.972;5.650;2023-08-06T14:15:24;19.8;67.6
78467;SHT31;67759;51.972;5.650;2023-08-06T14:17:54;19.8;67.5
78467;SHT31;67759;51.972;5.650;2023-08-06T14:20:23;19.8;68.0
78467;SHT31;67759;51.972;5.650;2023-08-06T14:22:53;19.8;67.6
78467;SHT31;67759;51.972;5.650;2023-08-06T14:25:23;19.8;68.2
78467;SHT31;67759;51.972;5.650;2023-08-06T14:27:52;19.8;68.1
78467;SHT31;67759;51.972;5.650;2023-08-06T14:30:22;19.8;67.8
78467;SHT31;67759;51.972;5.650;2023-08-06T14:32:53;19.9;68.4
78467;SHT31;67759;51.972;5.650;2023-08-06T14:35:23;19.9;68.2
78467;SHT31;67759;51.972;5.650;2023-08-06T14:37:53;20.0;67.6
78467;SHT31;67759;51.972;5.650;2023-08-06T14:40:22;20.0;67.3
78467;SHT31;67759;51.972;5.650;2023-08-06T14:42:57;20.1;67.3
78467;SHT31;67759;51.972;5.650;2023-08-06T14:45:27;20.1;67.5
78467;SHT31;67759;51.972;5.650;2023-08-06T14:47:57;20.1;67.6
78467;SHT31;67759;51.972;5.650;2023-08-06T14:50:28;20.2;67.0
78467;SHT31;67759;51.972;5.650;2023-08-06T14:52:58;20.2;66.7
78467;SHT31;67759;51.972;5.650;2023-08-06T14:55:29;20.2;66.9
78467;SHT31;67759;51.972;5.650;2023-08-06T14:58:01;20.2;66.8
78467;SHT31;67759;51.972;5.650;2023-08-06T15:00:33;20.3;66.7
78467;SHT31;67759;51.972;5.650;2023-08-06T15:03:04;20.3;66.3
78467;SHT31;67759;51.972;5.650;2023-08-06T15:05:33;20.4;66.2
78467;SHT31;67759;51.972;5.650;2023-08-06T15:08:03;20.4;65.8
78467;SHT31;67759;51.972;5.650;2023-08-06T15:10:33;20.5;65.7
78467;SHT31;67759;51.972;5.650;2023-08-06T15:13:03;20.6;65.2
78467;SHT31;67759;51.972;5.650;2023-08-06T15:15:34;20.7;64.8
78467;SHT31;67759;51.972;5.650;2023-08-06T15:18:03;20.7;64.5
78467;SHT31;67759;51.972;5.650;2023-08-06T15:20:33;20.8;64.0
78467;SHT31;67759;51.972;5.650;2023-08-06T15:23:02;20.8;63.5
78467;SHT31;67759;51.972;5.650;2023-08-06T15:25:32;20.9;63.5
78467;SHT31;67759;51.972;5.650;2023-08-06T15:28:02;20.9;63.3
78467;SHT31;67759;51.972;5.650;2023-08-06T15:30:32;21.0;63.1
78467;SHT31;67759;51.972;5.650;2023-08-06T15:33:02;21.0;62.9
78467;SHT31;67759;51.972;5.650;2023-08-06T15:35:34;21.1;62.2
78467;SHT31;67759;51.972;5.650;2023-08-06T15:38:04;21.1;62.7
78467;SHT31;67759;51.972;5.650;2023-08-06T15:40:33;21.2;62.6
78467;SHT31;67759;51.972;5.650;2023-08-06T15:43:03;21.3;61.6
78467;SHT31;67759;51.972;5.650;2023-08-06T15:45:33;21.3;61.4
78467;SHT31;67759;51.972;5.650;2023-08-06T15:48:04;21.3;61.2
78467;SHT31;67759;51.972;5.650;2023-08-06T15:50:33;21.2;61.5
78467;SHT31;67759;51.972;5.650;2023-08-06T15:53:03;21.1;62.0
78467;SHT31;67759;51.972;5.650;2023-08-06T15:55:33;21.1;62.4
78467;SHT31;67759;51.972;5.650;2023-08-06T15:58:05;21.1;62.5
78467;SHT31;67759;51.972;5.650;2023-08-06T16:00:34;21.0;62.0
78467;SHT31;67759;51.972;5.650;2023-08-06T16:03:04;21.0;62.2
78467;SHT31;67759;51.972;5.650;2023-08-06T16:05:34;21.0;61.6
78467;SHT31;67759;51.972;5.650;2023-08-06T16:08:03;21.0;61.2
78467;SHT31;67759;51.972;5.650;2023-08-06T16:10:33;21.1;61.5
78467;SHT31;67759;51.972;5.650;2023-08-06T16:13:03;21.1;60.7
78467;SHT31;67759;51.972;5.650;2023-08-06T16:15:33;21.2;60.2
78467;SHT31;67759;51.972;5.650;2023-08-06T16:18:03;21.2;59.5
78467;SHT31;67759;51.972;5.650;2023-08-06T16:20:32;21.2;59.2
78467;SHT31;67759;51.972;5.650;2023-08-06T16:23:02;21.2;59.0